createdAt,value
2023-07-10T00:01:30.353Z,3.90
2023-07-10T00:03:57.202Z,3.40
2023-07-10T00:06:24.527Z,4.50
2023-07-10T00:08:51.178Z,3.80
2023-07-10T00:11:23.199Z,3.00
2023-07-10T00:13:49.978Z,3.30
2023-07-10T00:16:21.741Z,4.00
2023-07-10T00:18:49.690Z,3.90
2023-07-10T00:21:18.170Z,4.90
2023-07-10T00:23:45.646Z,4.50
2023-07-10T00:26:23.443Z,3.40
2023-07-10T00:28:56.253Z,4.60
2023-07-10T00:31:25.624Z,4.20
2023-07-10T00:33:53.480Z,3.80
2023-07-10T00:36:32.039Z,6.20
2023-07-10T00:39:21.049Z,5.80
2023-07-10T00:41:55.992Z,4.30
2023-07-10T00:44:31.639Z,8.60
2023-07-10T00:47:04.416Z,5.30
2023-07-10T00:49:53.585Z,4.10
2023-07-10T00:52:25.235Z,3.70
2023-07-10T00:54:55.171Z,4.20
2023-07-10T00:57:33.992Z,4.60
2023-07-10T01:00:14.827Z,5.40
2023-07-10T01:02:41.448Z,5.10
2023-07-10T01:05:09.071Z,4.70
2023-07-10T01:07:58.510Z,5.20
2023-07-10T01:10:25.454Z,6.80
2023-07-10T01:12:52.509Z,3.30
2023-07-10T01:15:19.251Z,7.10
2023-07-10T01:17:47.477Z,5.10
2023-07-10T01:20:34.193Z,5.00
2023-07-10T01:23:02.558Z,3.60
2023-07-10T01:25:34.462Z,7.10
2023-07-10T01:28:10.329Z,3.10
2023-07-10T01:30:40.377Z,5.30
2023-07-10T01:33:14.103Z,3.60
2023-07-10T01:35:43.564Z,7.20
2023-07-10T01:38:14.124Z,4.60
2023-07-10T01:40:43.884Z,4.30
2023-07-10T01:43:10.836Z,4.10
2023-07-10T01:45:46.725Z,4.40
2023-07-10T01:48:14.554Z,4.20
2023-07-10T01:50:44.669Z,5.40
2023-07-10T01:53:11.503Z,4.20
2023-07-10T01:55:45.317Z,6.50
2023-07-10T01:58:13.392Z,4.10
2023-07-10T02:00:41.569Z,4.90
2023-07-10T02:03:08.276Z,5.90
2023-07-10T02:05:34.939Z,5.60
2023-07-10T02:08:01.639Z,4.60
2023-07-10T02:10:44.279Z,4.20
2023-07-10T02:13:13.424Z,4.00
2023-07-10T02:15:40.838Z,6.00
2023-07-10T02:18:07.435Z,5.80
2023-07-10T02:20:34.104Z,6.20
2023-07-10T02:23:00.795Z,5.70
2023-07-10T02:25:27.941Z,5.20
2023-07-10T02:27:54.482Z,4.80
2023-07-10T02:30:21.095Z,7.30
2023-07-10T02:32:47.689Z,4.30
2023-07-10T02:35:14.289Z,4.80
2023-07-10T02:37:41.090Z,5.60
2023-07-10T02:40:08.177Z,5.10
2023-07-10T02:42:34.891Z,4.80
2023-07-10T02:45:02.877Z,4.70
2023-07-10T02:47:29.489Z,6.60
2023-07-10T02:49:56.017Z,5.10
2023-07-10T02:52:22.564Z,5.70
2023-07-10T02:54:49.128Z,3.80
2023-07-10T02:57:15.659Z,6.00
2023-07-10T02:59:42.362Z,5.90
2023-07-10T03:02:09.000Z,7.80
2023-07-10T03:04:35.610Z,5.50
2023-07-10T03:07:04.159Z,6.00
2023-07-10T03:09:31.004Z,5.90
2023-07-10T03:11:59.552Z,5.90
2023-07-10T03:14:26.123Z,4.90
2023-07-10T03:16:53.535Z,4.90
2023-07-10T03:19:20.069Z,4.40
2023-07-10T03:21:46.749Z,5.50
2023-07-10T03:24:13.385Z,4.80
2023-07-10T03:26:40.063Z,4.30
2023-07-10T03:29:14.306Z,4.50
2023-07-10T03:34:08.467Z,5.00
2023-07-10T03:36:35.025Z,6.60
2023-07-10T03:39:01.531Z,4.80
2023-07-10T03:41:28.093Z,6.20
2023-07-10T03:43:55.647Z,8.00
2023-07-10T03:46:22.756Z,5.30
2023-07-10T03:48:49.517Z,8.10
2023-07-10T03:51:16.826Z,6.90
2023-07-10T03:53:43.522Z,6.20
2023-07-10T03:56:10.356Z,6.20
2023-07-10T03:58:41.387Z,6.20
2023-07-10T04:01:08.751Z,6.80
2023-07-10T04:03:37.169Z,12.70
2023-07-10T04:06:05.242Z,8.80
2023-07-10T04:08:34.734Z,6.70
2023-07-10T04:11:22.746Z,8.30
2023-07-10T04:13:51.302Z,7.80
2023-07-10T04:16:19.177Z,9.80
2023-07-10T04:18:47.827Z,7.70
2023-07-10T04:21:18.321Z,6.30
2023-07-10T04:23:45.631Z,10.90
2023-07-10T04:26:20.209Z,7.70
2023-07-10T04:28:48.666Z,6.30
2023-07-10T04:31:17.542Z,7.50
2023-07-10T04:33:45.021Z,9.70
2023-07-10T04:36:11.680Z,8.20
2023-07-10T04:38:38.297Z,9.50
2023-07-10T04:41:07.499Z,8.10
2023-07-10T04:43:35.375Z,6.90
2023-07-10T04:46:05.433Z,6.90
2023-07-10T04:48:33.530Z,10.30
2023-07-10T04:51:03.615Z,9.20
2023-07-10T04:53:32.296Z,10.10
2023-07-10T04:56:01.558Z,8.30
2023-07-10T04:58:29.609Z,17.60
2023-07-10T05:01:00.976Z,16.40
2023-07-10T05:03:27.647Z,12.50
2023-07-10T05:05:55.937Z,15.00
2023-07-10T05:08:26.313Z,14.00
2023-07-10T05:10:54.970Z,15.90
2023-07-10T05:13:25.889Z,11.60
2023-07-10T05:15:54.115Z,15.10
2023-07-10T05:18:20.794Z,14.10
2023-07-10T05:20:49.171Z,10.90
2023-07-10T05:23:17.183Z,14.50
2023-07-10T05:25:58.386Z,9.90
2023-07-10T05:28:26.357Z,11.90
2023-07-10T05:30:55.021Z,8.10
2023-07-10T05:33:21.727Z,9.90
2023-07-10T05:35:53.506Z,7.20
2023-07-10T05:38:23.748Z,9.30
2023-07-10T05:40:50.344Z,8.70
2023-07-10T05:43:16.955Z,7.80
2023-07-10T05:45:43.678Z,10.30
2023-07-10T05:48:11.139Z,9.20
2023-07-10T05:50:37.889Z,7.40
2023-07-10T05:53:05.408Z,7.80
2023-07-10T05:55:32.193Z,12.10
2023-07-10T05:57:58.802Z,6.20
2023-07-10T06:00:26.428Z,7.30
2023-07-10T06:02:53.216Z,6.20
2023-07-10T06:05:19.819Z,7.80
2023-07-10T06:07:46.608Z,6.90
2023-07-10T06:10:13.226Z,9.10
2023-07-10T06:12:41.662Z,7.10
2023-07-10T06:15:09.894Z,7.70
2023-07-10T06:17:36.478Z,5.90
2023-07-10T06:20:03.578Z,7.60
2023-07-10T06:22:30.192Z,7.60
2023-07-10T06:24:56.763Z,6.10
2023-07-10T06:27:23.429Z,7.40
2023-07-10T06:29:52.234Z,7.20
2023-07-10T06:32:20.394Z,12.60
2023-07-10T06:34:47.077Z,8.30
2023-07-10T06:37:14.391Z,7.20
2023-07-10T06:39:41.259Z,10.00
2023-07-10T06:42:08.068Z,8.20
2023-07-10T06:44:34.742Z,7.30
2023-07-10T06:47:01.317Z,7.20
2023-07-10T06:49:27.985Z,8.70
2023-07-10T06:51:54.571Z,7.80
2023-07-10T06:54:21.147Z,8.00
2023-07-10T06:56:49.070Z,8.70
2023-07-10T06:59:21.998Z,9.90
2023-07-10T07:01:49.081Z,8.70
2023-07-10T07:04:15.716Z,6.80
2023-07-10T07:06:42.246Z,7.20
2023-07-10T07:09:08.828Z,5.60
2023-07-10T07:11:35.423Z,8.10
2023-07-10T07:14:02.016Z,6.50
2023-07-10T07:16:28.589Z,10.00
2023-07-10T07:19:02.841Z,7.80
2023-07-10T07:21:37.773Z,6.90
2023-07-10T07:24:04.936Z,8.50
2023-07-10T07:26:31.742Z,9.90
2023-07-10T07:28:58.351Z,7.60
2023-07-10T07:31:24.981Z,10.80
2023-07-10T07:33:51.759Z,7.50
2023-07-10T07:36:18.348Z,6.70
2023-07-10T07:38:44.967Z,8.80
2023-07-10T07:41:11.967Z,10.70
2023-07-10T07:43:38.541Z,10.90
2023-07-10T07:46:05.374Z,10.10
2023-07-10T07:48:32.272Z,9.20
2023-07-10T07:51:02.463Z,10.80
2023-07-10T07:53:32.707Z,11.80
2023-07-10T07:55:59.554Z,10.80
2023-07-10T07:58:26.406Z,11.80
2023-07-10T08:00:53.030Z,9.30
2023-07-10T08:03:19.948Z,7.80
2023-07-10T08:05:46.819Z,8.50
2023-07-10T08:08:13.570Z,6.30
2023-07-10T08:10:42.809Z,6.30
2023-07-10T08:13:11.515Z,10.40
2023-07-10T08:15:39.009Z,7.70
2023-07-10T08:18:06.287Z,9.50
2023-07-10T08:20:33.110Z,8.10
2023-07-10T08:23:00.001Z,9.40
2023-07-10T08:25:26.598Z,8.20
2023-07-10T08:27:53.738Z,7.30
2023-07-10T08:30:20.896Z,7.40
2023-07-10T08:32:47.495Z,7.00
2023-07-10T08:35:14.127Z,7.10
2023-07-10T08:37:40.710Z,5.90
2023-07-10T08:40:15.204Z,8.50
2023-07-10T08:42:42.293Z,6.30
2023-07-10T08:45:17.285Z,8.10
2023-07-10T08:47:50.981Z,5.60
2023-07-10T08:50:29.645Z,8.40
2023-07-10T08:52:59.321Z,5.70
2023-07-10T08:55:30.275Z,9.10
2023-07-10T08:58:01.359Z,7.40
2023-07-10T09:00:36.605Z,5.80
2023-07-10T09:03:33.793Z,7.50
2023-07-10T09:06:04.381Z,6.60
2023-07-10T09:08:33.411Z,7.50
2023-07-10T09:11:03.771Z,8.60
2023-07-10T09:13:46.882Z,7.40
2023-07-10T09:16:19.721Z,8.00
2023-07-10T09:18:53.104Z,8.20
2023-07-10T09:21:22.130Z,7.50
2023-07-10T09:23:49.329Z,7.30
2023-07-10T09:26:22.738Z,7.40
2023-07-10T09:29:28.105Z,7.50
2023-07-10T09:32:13.707Z,5.50
2023-07-10T09:34:45.725Z,4.90
2023-07-10T09:37:16.840Z,5.10
2023-07-10T09:39:43.484Z,6.10
2023-07-10T09:42:16.584Z,5.70
2023-07-10T09:45:01.484Z,9.40
2023-07-10T09:47:39.925Z,5.60
2023-07-10T09:50:14.910Z,9.70
2023-07-10T09:52:42.941Z,18.70
2023-07-10T09:55:13.840Z,8.80
2023-07-10T09:58:03.335Z,8.40
2023-07-10T10:00:33.515Z,7.60
2023-07-10T10:03:09.320Z,7.30
2023-07-10T10:05:41.629Z,6.40
2023-07-10T10:08:20.495Z,7.80
2023-07-10T10:11:09.595Z,9.50
2023-07-10T10:13:44.118Z,8.90
2023-07-10T10:16:17.046Z,6.70
2023-07-10T10:18:50.305Z,9.90
2023-07-10T10:21:20.859Z,5.90
2023-07-10T10:23:50.453Z,8.30
2023-07-10T10:26:43.551Z,9.80
2023-07-10T10:29:31.051Z,5.60
2023-07-10T10:32:06.480Z,7.30
2023-07-10T10:35:11.890Z,9.50
2023-07-10T10:37:51.244Z,8.30
2023-07-10T10:40:30.115Z,14.10
2023-07-10T10:43:12.134Z,10.40
2023-07-10T10:45:47.510Z,9.10
2023-07-10T10:48:42.161Z,8.10
2023-07-10T10:51:14.571Z,9.40
2023-07-10T10:53:47.783Z,10.00
2023-07-10T10:56:37.057Z,6.00
2023-07-10T10:59:09.521Z,5.60
2023-07-10T11:01:49.150Z,9.60
2023-07-10T11:04:21.361Z,5.40
2023-07-10T11:07:06.719Z,7.00
2023-07-10T11:09:39.816Z,6.10
2023-07-10T11:12:15.866Z,7.30
2023-07-10T11:14:44.971Z,9.90
2023-07-10T11:17:15.176Z,5.70
2023-07-10T11:19:42.539Z,8.90
2023-07-10T11:22:25.666Z,6.20
2023-07-10T11:24:53.142Z,8.00
2023-07-10T11:27:28.152Z,5.20
2023-07-10T11:30:08.552Z,5.80
2023-07-10T11:32:55.874Z,8.20
2023-07-10T11:35:24.121Z,8.90
2023-07-10T11:37:50.713Z,8.80
2023-07-10T11:40:29.388Z,5.70
2023-07-10T11:43:00.935Z,5.80
2023-07-10T11:45:45.170Z,8.10
2023-07-10T11:48:37.786Z,7.00
2023-07-10T11:51:04.405Z,5.10
2023-07-10T11:53:31.072Z,7.20
2023-07-10T11:56:07.588Z,6.50
2023-07-10T11:58:36.795Z,7.20
2023-07-10T12:01:19.145Z,8.40
2023-07-10T12:03:45.986Z,6.70
2023-07-10T12:06:18.127Z,6.90
2023-07-10T12:08:46.584Z,11.70
2023-07-10T12:11:28.203Z,8.30
2023-07-10T12:13:54.804Z,7.20
2023-07-10T12:16:33.153Z,12.50
2023-07-10T12:19:17.557Z,6.10
2023-07-10T12:21:45.417Z,7.40
2023-07-10T12:24:16.065Z,7.90
2023-07-10T12:27:41.274Z,9.30
2023-07-10T12:29:29.493Z,9.80
2023-07-10T12:31:56.712Z,10.40
2023-07-10T12:34:26.131Z,12.70
2023-07-10T12:36:59.066Z,7.40
2023-07-10T12:39:26.368Z,6.20
2023-07-10T12:41:55.761Z,10.30
2023-07-10T12:44:25.212Z,12.90
2023-07-10T12:47:14.309Z,8.40
2023-07-10T12:49:49.675Z,10.00
2023-07-10T12:52:17.145Z,7.50
2023-07-10T12:54:52.256Z,9.60
2023-07-10T12:57:30.911Z,6.70
2023-07-10T13:00:11.012Z,10.40
2023-07-10T13:02:51.393Z,10.40
2023-07-10T13:05:31.092Z,7.70
2023-07-10T13:07:58.818Z,6.70
2023-07-10T13:10:39.792Z,7.30
2023-07-10T13:13:15.662Z,11.40
2023-07-10T13:15:42.636Z,11.50
2023-07-10T13:18:36.182Z,10.20
2023-07-10T13:21:06.265Z,7.70
2023-07-10T13:23:32.852Z,11.00
2023-07-10T13:25:59.492Z,9.50
2023-07-10T13:28:47.192Z,9.00
2023-07-10T13:31:17.661Z,11.30
2023-07-10T13:33:45.005Z,11.90
2023-07-10T13:36:21.297Z,7.50
2023-07-10T13:38:48.476Z,7.50
2023-07-10T13:41:17.383Z,9.60
2023-07-10T13:43:44.402Z,8.10
2023-07-10T13:46:31.715Z,9.00
2023-07-10T13:49:06.077Z,6.90
2023-07-10T13:51:34.520Z,9.50
2023-07-10T13:54:02.004Z,7.70
2023-07-10T13:56:39.117Z,7.90
2023-07-10T13:59:06.634Z,10.60
2023-07-10T14:01:33.766Z,13.40
2023-07-10T14:04:00.809Z,10.50
2023-07-10T14:06:33.813Z,9.70
2023-07-10T14:09:13.074Z,9.50
2023-07-10T14:11:41.954Z,7.10
2023-07-10T14:14:19.114Z,7.30
2023-07-10T14:16:47.161Z,8.40
2023-07-10T14:19:18.885Z,10.80
2023-07-10T14:21:46.272Z,13.10
2023-07-10T14:24:12.904Z,8.10
2023-07-10T14:26:39.595Z,11.60
2023-07-10T14:29:06.190Z,10.10
2023-07-10T14:31:32.781Z,17.30
2023-07-10T14:33:59.371Z,16.00
2023-07-10T14:36:27.812Z,10.30
2023-07-10T14:38:54.484Z,11.30
2023-07-10T14:41:24.375Z,10.60
2023-07-10T14:43:52.213Z,10.30
2023-07-10T14:46:36.673Z,8.80
2023-07-10T14:49:24.247Z,12.20
2023-07-10T14:51:51.074Z,9.80
2023-07-10T14:54:17.706Z,11.30
2023-07-10T14:56:44.576Z,9.60
2023-07-10T14:59:12.969Z,9.30
2023-07-10T15:01:39.668Z,8.90
2023-07-10T15:04:06.342Z,7.30
2023-07-10T15:06:38.554Z,9.40
2023-07-10T15:09:06.788Z,11.30
2023-07-10T15:11:33.437Z,10.10
2023-07-10T15:14:00.020Z,11.10
2023-07-10T15:16:27.419Z,11.90
2023-07-10T15:18:54.003Z,14.80
2023-07-10T15:21:25.398Z,11.80
2023-07-10T15:23:52.000Z,16.20
2023-07-10T15:26:18.576Z,14.20
2023-07-10T15:28:45.150Z,11.20
2023-07-10T15:31:13.694Z,13.80
2023-07-10T15:33:42.676Z,13.60
2023-07-10T15:36:17.744Z,15.80
2023-07-10T15:38:44.968Z,14.20
2023-07-10T15:41:23.651Z,11.80
2023-07-10T15:43:51.404Z,11.40
2023-07-10T15:46:18.284Z,9.90
2023-07-10T15:48:45.388Z,13.70
2023-07-10T15:51:22.089Z,16.00
2023-07-10T15:53:48.801Z,11.90
2023-07-10T15:56:15.534Z,12.20
2023-07-10T15:58:42.621Z,13.00
2023-07-10T16:01:16.199Z,12.40
2023-07-10T16:06:09.590Z,12.80
2023-07-10T16:08:38.519Z,9.80
2023-07-10T16:11:17.518Z,10.00
2023-07-10T16:13:45.766Z,14.30
2023-07-10T16:16:12.443Z,12.10
2023-07-10T16:18:39.085Z,12.70
2023-07-10T16:21:34.893Z,13.10
2023-07-10T16:24:01.772Z,13.60
2023-07-10T16:26:29.703Z,11.40
2023-07-10T16:28:56.335Z,11.00
2023-07-10T16:31:27.933Z,8.50
2023-07-10T16:33:54.705Z,15.30
2023-07-10T16:36:21.318Z,13.20
2023-07-10T16:38:48.293Z,9.00
2023-07-10T16:41:17.555Z,10.40
2023-07-10T16:43:44.717Z,10.10
2023-07-10T16:46:12.626Z,11.80
2023-07-10T16:48:40.729Z,10.80
2023-07-10T16:51:22.623Z,8.40
2023-07-10T16:53:49.304Z,9.50
2023-07-10T16:56:18.566Z,9.50
2023-07-10T16:58:45.685Z,8.50
2023-07-10T17:01:27.213Z,8.30
2023-07-10T17:03:55.720Z,10.60
2023-07-10T17:06:27.207Z,9.70
2023-07-10T17:08:54.759Z,8.90
2023-07-10T17:11:34.020Z,8.20
2023-07-10T17:14:01.649Z,9.20
2023-07-10T17:16:28.718Z,12.20
2023-07-10T17:18:55.399Z,9.60
2023-07-10T17:21:22.292Z,7.70
2023-07-10T17:23:48.860Z,6.90
2023-07-10T17:26:17.853Z,7.80
2023-07-10T17:28:46.604Z,6.90
2023-07-10T17:31:21.229Z,10.00
2023-07-10T17:33:49.847Z,7.70
2023-07-10T17:36:17.201Z,11.90
2023-07-10T17:38:43.857Z,8.30
2023-07-10T17:41:16.292Z,8.70
2023-07-10T17:43:43.621Z,7.20
2023-07-10T17:46:11.216Z,8.10
2023-07-10T17:48:38.545Z,9.40
2023-07-10T17:51:29.933Z,10.90
2023-07-10T17:53:58.257Z,8.20
2023-07-10T17:56:25.684Z,15.30
2023-07-10T17:58:56.517Z,9.50
2023-07-10T18:01:27.617Z,10.40
2023-07-10T18:03:58.826Z,10.60
2023-07-10T18:06:25.802Z,10.00
2023-07-10T18:10:05.156Z,10.40
2023-07-10T18:13:37.416Z,14.20
2023-07-10T18:16:06.793Z,12.50
2023-07-10T18:18:34.656Z,14.20
2023-07-10T18:21:15.512Z,11.10
2023-07-10T18:23:42.507Z,11.40
2023-07-10T18:26:09.906Z,11.50
2023-07-10T18:28:37.879Z,13.10
2023-07-10T18:31:16.051Z,12.30
2023-07-10T18:33:42.720Z,17.20
2023-07-10T18:36:13.274Z,13.50
2023-07-10T18:38:40.330Z,12.70
2023-07-10T18:41:27.755Z,12.60
2023-07-10T18:43:58.660Z,12.50
2023-07-10T18:46:27.549Z,10.00
2023-07-10T18:48:55.650Z,18.20
2023-07-10T18:51:35.066Z,18.20
2023-07-10T18:54:05.193Z,11.80
2023-07-10T18:56:33.395Z,9.60
2023-07-10T18:59:00.099Z,9.90
2023-07-10T19:01:30.260Z,10.20
2023-07-10T19:03:57.740Z,11.70
2023-07-10T19:06:40.589Z,13.20
2023-07-10T19:09:20.359Z,12.80
2023-07-10T19:11:47.965Z,10.70
2023-07-10T19:14:16.698Z,13.90
2023-07-10T19:16:44.234Z,15.10
2023-07-10T19:19:33.623Z,16.40
2023-07-10T19:22:00.553Z,11.50
2023-07-10T19:24:28.326Z,10.90
2023-07-10T19:26:55.225Z,9.20
2023-07-10T19:29:21.882Z,10.60
2023-07-10T19:31:55.957Z,12.50
2023-07-10T19:34:23.397Z,12.20
2023-07-10T19:38:10.792Z,10.30
2023-07-10T19:45:25.244Z,24.20
2023-07-10T19:47:51.952Z,28.40
2023-07-10T19:50:20.293Z,32.70
2023-07-10T19:52:46.900Z,29.80
2023-07-10T19:55:15.332Z,14.20
2023-07-10T19:57:42.959Z,16.60
2023-07-10T20:00:28.096Z,13.10
2023-07-10T20:02:54.898Z,11.40
2023-07-10T20:05:21.721Z,15.00
2023-07-10T20:07:48.692Z,15.50
2023-07-10T20:10:20.294Z,16.70
2023-07-10T20:15:16.248Z,10.20
2023-07-10T20:17:46.007Z,13.10
2023-07-10T20:20:17.890Z,12.40
2023-07-10T20:22:44.542Z,10.90
2023-07-10T20:25:11.158Z,12.70
2023-07-10T20:27:38.144Z,11.50
2023-07-10T20:30:08.563Z,10.20
2023-07-10T20:32:35.242Z,9.40
2023-07-10T20:35:03.107Z,11.00
2023-07-10T20:37:29.742Z,9.40
2023-07-10T20:39:56.383Z,9.30
2023-07-10T20:42:23.062Z,10.20
2023-07-10T20:44:50.244Z,11.10
2023-07-10T20:47:17.364Z,10.50
2023-07-10T20:49:45.787Z,12.00
2023-07-10T20:52:18.618Z,11.70
2023-07-10T20:54:47.608Z,13.10
2023-07-10T20:57:14.733Z,10.60
2023-07-10T20:59:42.194Z,12.60
2023-07-10T21:02:19.322Z,10.00
2023-07-10T21:04:46.220Z,12.80
2023-07-10T21:07:16.702Z,12.10
2023-07-10T21:09:52.674Z,11.90
2023-07-10T21:12:20.342Z,11.60
2023-07-10T21:14:48.271Z,11.90
2023-07-10T21:17:20.264Z,11.00
2023-07-10T21:19:46.898Z,14.20
2023-07-10T21:22:15.493Z,12.70
2023-07-10T21:24:42.537Z,12.00
2023-07-10T21:27:12.141Z,14.80
2023-07-10T21:29:38.751Z,14.90
2023-07-10T21:32:11.636Z,15.80
2023-07-10T21:34:38.204Z,14.30
2023-07-10T21:37:04.751Z,13.70
2023-07-10T21:39:31.506Z,16.70
2023-07-10T21:41:58.088Z,16.30
2023-07-10T21:44:25.039Z,20.70
2023-07-10T21:46:51.711Z,14.30
2023-07-10T21:49:18.480Z,14.90
2023-07-10T21:51:45.285Z,15.50
2023-07-10T21:54:13.193Z,15.00
2023-07-10T21:56:43.671Z,15.50
2023-07-10T21:59:20.430Z,17.70
2023-07-10T22:01:47.660Z,18.90
2023-07-10T22:04:14.464Z,18.90
2023-07-10T22:06:43.930Z,25.10
2023-07-10T22:09:12.384Z,21.10
2023-07-10T22:11:41.433Z,16.00
2023-07-10T22:14:16.233Z,14.20
2023-07-10T22:16:43.807Z,15.60
2023-07-10T22:19:12.149Z,15.10
2023-07-10T22:21:41.660Z,14.60
2023-07-10T22:24:19.080Z,17.70
2023-07-10T22:26:45.672Z,15.50
2023-07-10T22:29:12.330Z,20.30
2023-07-10T22:31:40.335Z,15.00
2023-07-10T22:34:07.028Z,15.50
2023-07-10T22:36:33.750Z,18.20
2023-07-10T22:39:00.281Z,16.40
2023-07-10T22:41:31.175Z,14.80
2023-07-10T22:44:11.506Z,14.60
2023-07-10T22:46:39.891Z,17.10
2023-07-10T22:49:09.485Z,19.70
2023-07-10T22:51:36.428Z,17.50
2023-07-10T22:54:04.393Z,15.00
2023-07-10T22:56:34.550Z,17.90
2023-07-10T22:59:01.345Z,15.60
2023-07-10T23:01:28.450Z,17.40
2023-07-10T23:03:55.729Z,16.70
2023-07-10T23:06:25.968Z,15.40
2023-07-10T23:08:52.767Z,15.50
2023-07-10T23:11:19.294Z,17.20
2023-07-10T23:13:46.249Z,16.20
2023-07-10T23:16:15.839Z,15.80
2023-07-10T23:18:59.405Z,14.20
2023-07-10T23:21:28.356Z,15.30
2023-07-10T23:23:55.170Z,15.60
2023-07-10T23:26:24.607Z,17.60
2023-07-10T23:28:51.200Z,16.20
2023-07-10T23:31:20.648Z,15.00
2023-07-10T23:33:49.184Z,15.90
2023-07-10T23:36:17.571Z,19.10
2023-07-10T23:38:44.511Z,14.80
2023-07-10T23:41:12.176Z,13.90
2023-07-10T23:43:39.862Z,15.60
2023-07-10T23:46:07.723Z,15.90
2023-07-10T23:48:34.639Z,14.90
2023-07-10T23:51:01.234Z,15.30
2023-07-10T23:53:30.453Z,13.50
2023-07-10T23:55:57.551Z,15.30
2023-07-10T23:58:24.097Z,17.60
